Main page
METAR-TAF:

METAR-TAF

Airports :

Coffeyville Municipal Airport

Coffeyville, Kansas, United States

latitude: 37-05-28N, longitude: 095-33-59W, elevation: 751 ft

Current weather observation

The report was made 31 minutes ago, at 22:52 UTC
Wind 9 mph from the South
Temperature 90°F
Humidity 46%
Pressure 30.08 in. Hg
Visibility: 10 miles
Clear sky

METAR: KCFV 192252Z AUTO 18008KT 10SM CLR 32/19 A3008 RMK AO2 SLP179 T03220189

Time: 18:23 (23:23 UTC)


TAF: missing

Weather observations and forecasts of more than 4000 airports (METAR and TAF reports).

The available stations are represented by yellow and red dots on the map.

Hover mouse over dot to see the name of the station.

Then click to see weather observations and forecasts.

To change the map : click on the green buttons with a black cross to zoom in, on the green button with a dash to zoom out, or on the green arrows for adjacent maps.


METAR-TAF: